sensor_id;sensor_type;location;lat;lon;timestamp;P1;durP1;ratioP1;P2;durP2;ratioP2
17864;SDS011;9058;52.018;4.202;2022-09-28T00:01:04;1.65;;;1.05;;
17864;SDS011;9058;52.018;4.202;2022-09-28T00:03:31;3.75;;;0.90;;
17864;SDS011;9058;52.018;4.202;2022-09-28T00:05:59;2.10;;;0.90;;
17864;SDS011;9058;52.018;4.202;2022-09-28T00:08:26;1.65;;;0.60;;
17864;SDS011;9058;52.018;4.202;2022-09-28T00:10:54;1.35;;;0.73;;
17864;SDS011;9058;52.018;4.202;2022-09-28T00:13:25;3.85;;;1.05;;
17864;SDS011;9058;52.018;4.202;2022-09-28T00:15:58;2.33;;;0.80;;
17864;SDS011;9058;52.018;4.202;2022-09-28T00:18:26;4.30;;;0.88;;
17864;SDS011;9058;52.018;4.202;2022-09-28T00:20:59;5.80;;;0.60;;
17864;SDS011;9058;52.018;4.202;2022-09-28T00:23:26;3.00;;;0.70;;
17864;SDS011;9058;52.018;4.202;2022-09-28T00:25:54;3.50;;;0.73;;
17864;SDS011;9058;52.018;4.202;2022-09-28T00:28:22;5.30;;;0.77;;
17864;SDS011;9058;52.018;4.202;2022-09-28T00:30:53;5.25;;;0.82;;
17864;SDS011;9058;52.018;4.202;2022-09-28T00:33:19;2.60;;;0.60;;
17864;SDS011;9058;52.018;4.202;2022-09-28T00:35:46;3.85;;;0.50;;
17864;SDS011;9058;52.018;4.202;2022-09-28T00:38:19;2.58;;;0.80;;
17864;SDS011;9058;52.018;4.202;2022-09-28T00:40:46;2.85;;;0.60;;
17864;SDS011;9058;52.018;4.202;2022-09-28T00:43:16;0.75;;;0.60;;
17864;SDS011;9058;52.018;4.202;2022-09-28T00:45:45;5.50;;;0.80;;
17864;SDS011;9058;52.018;4.202;2022-09-28T00:48:15;3.55;;;0.75;;
17864;SDS011;9058;52.018;4.202;2022-09-28T00:50:41;1.05;;;0.50;;
17864;SDS011;9058;52.018;4.202;2022-09-28T00:53:10;2.95;;;0.60;;
17864;SDS011;9058;52.018;4.202;2022-09-28T00:55:37;4.68;;;0.75;;
17864;SDS011;9058;52.018;4.202;2022-09-28T00:58:06;5.88;;;0.88;;
17864;SDS011;9058;52.018;4.202;2022-09-28T01:00:34;4.05;;;0.60;;
17864;SDS011;9058;52.018;4.202;2022-09-28T01:03:03;6.28;;;0.70;;
17864;SDS011;9058;52.018;4.202;2022-09-28T01:05:30;7.07;;;1.40;;
17864;SDS011;9058;52.018;4.202;2022-09-28T01:07:56;6.00;;;0.82;;
17864;SDS011;9058;52.018;4.202;2022-09-28T01:10:23;4.68;;;0.63;;
17864;SDS011;9058;52.018;4.202;2022-09-28T01:12:51;7.18;;;0.82;;
17864;SDS011;9058;52.018;4.202;2022-09-28T01:15:18;4.57;;;0.60;;
17864;SDS011;9058;52.018;4.202;2022-09-28T01:17:49;3.50;;;0.75;;
17864;SDS011;9058;52.018;4.202;2022-09-28T01:20:30;2.25;;;0.70;;
17864;SDS011;9058;52.018;4.202;2022-09-28T01:23:04;4.72;;;1.10;;
17864;SDS011;9058;52.018;4.202;2022-09-28T01:25:39;3.33;;;0.90;;
17864;SDS011;9058;52.018;4.202;2022-09-28T01:28:08;2.60;;;0.40;;
17864;SDS011;9058;52.018;4.202;2022-09-28T01:30:39;14.20;;;1.77;;
17864;SDS011;9058;52.018;4.202;2022-09-28T01:33:07;2.17;;;0.40;;
17864;SDS011;9058;52.018;4.202;2022-09-28T01:35:38;3.28;;;0.70;;
17864;SDS011;9058;52.018;4.202;2022-09-28T01:38:05;2.85;;;1.33;;
17864;SDS011;9058;52.018;4.202;2022-09-28T01:40:32;1.83;;;0.30;;
17864;SDS011;9058;52.018;4.202;2022-09-28T01:43:01;1.30;;;0.30;;
17864;SDS011;9058;52.018;4.202;2022-09-28T01:45:33;4.93;;;0.77;;
17864;SDS011;9058;52.018;4.202;2022-09-28T01:48:01;2.90;;;0.47;;
17864;SDS011;9058;52.018;4.202;2022-09-28T01:50:29;2.10;;;0.50;;
17864;SDS011;9058;52.018;4.202;2022-09-28T01:52:58;3.33;;;0.47;;
17864;SDS011;9058;52.018;4.202;2022-09-28T01:55:27;1.70;;;0.25;;
17864;SDS011;9058;52.018;4.202;2022-09-28T01:57:55;4.80;;;0.77;;
17864;SDS011;9058;52.018;4.202;2022-09-28T02:00:23;6.40;;;0.50;;
17864;SDS011;9058;52.018;4.202;2022-09-28T02:02:54;2.58;;;0.40;;
17864;SDS011;9058;52.018;4.202;2022-09-28T02:05:23;3.38;;;0.35;;
17864;SDS011;9058;52.018;4.202;2022-09-28T02:07:53;2.20;;;0.95;;
17864;SDS011;9058;52.018;4.202;2022-09-28T02:10:23;5.13;;;0.50;;
17864;SDS011;9058;52.018;4.202;2022-09-28T02:12:52;3.47;;;0.57;;
17864;SDS011;9058;52.018;4.202;2022-09-28T02:15:22;3.85;;;0.70;;
17864;SDS011;9058;52.018;4.202;2022-09-28T02:17:49;1.38;;;0.50;;
17864;SDS011;9058;52.018;4.202;2022-09-28T02:20:18;3.13;;;0.80;;
17864;SDS011;9058;52.018;4.202;2022-09-28T02:22:46;1.90;;;0.70;;
17864;SDS011;9058;52.018;4.202;2022-09-28T02:25:17;7.88;;;1.33;;
17864;SDS011;9058;52.018;4.202;2022-09-28T02:27:47;8.02;;;1.35;;
17864;SDS011;9058;52.018;4.202;2022-09-28T02:30:17;5.35;;;0.80;;
17864;SDS011;9058;52.018;4.202;2022-09-28T02:32:45;4.82;;;1.10;;
17864;SDS011;9058;52.018;4.202;2022-09-28T02:35:13;3.88;;;0.63;;
17864;SDS011;9058;52.018;4.202;2022-09-28T02:37:43;6.00;;;0.88;;
17864;SDS011;9058;52.018;4.202;2022-09-28T02:40:11;5.90;;;0.80;;
17864;SDS011;9058;52.018;4.202;2022-09-28T02:42:42;4.70;;;1.70;;
17864;SDS011;9058;52.018;4.202;2022-09-28T02:45:12;3.17;;;1.20;;
17864;SDS011;9058;52.018;4.202;2022-09-28T02:47:46;1.58;;;0.80;;
17864;SDS011;9058;52.018;4.202;2022-09-28T02:50:20;1.98;;;0.43;;
17864;SDS011;9058;52.018;4.202;2022-09-28T02:52:56;3.10;;;0.60;;
17864;SDS011;9058;52.018;4.202;2022-09-28T02:55:29;3.63;;;0.50;;
17864;SDS011;9058;52.018;4.202;2022-09-28T02:58:02;3.65;;;0.52;;
17864;SDS011;9058;52.018;4.202;2022-09-28T03:00:31;0.90;;;0.50;;
17864;SDS011;9058;52.018;4.202;2022-09-28T03:03:04;1.40;;;0.50;;
17864;SDS011;9058;52.018;4.202;2022-09-28T03:05:36;2.47;;;0.60;;
17864;SDS011;9058;52.018;4.202;2022-09-28T03:08:10;2.10;;;0.50;;
17864;SDS011;9058;52.018;4.202;2022-09-28T03:10:39;2.85;;;0.65;;
17864;SDS011;9058;52.018;4.202;2022-09-28T03:13:08;2.28;;;0.30;;
17864;SDS011;9058;52.018;4.202;2022-09-28T03:15:36;4.90;;;0.63;;
17864;SDS011;9058;52.018;4.202;2022-09-28T03:18:03;3.55;;;0.68;;
17864;SDS011;9058;52.018;4.202;2022-09-28T03:20:30;1.70;;;0.38;;
17864;SDS011;9058;52.018;4.202;2022-09-28T03:22:59;1.77;;;0.68;;
17864;SDS011;9058;52.018;4.202;2022-09-28T03:25:27;2.78;;;0.70;;
17864;SDS011;9058;52.018;4.202;2022-09-28T03:27:53;1.80;;;0.60;;
17864;SDS011;9058;52.018;4.202;2022-09-28T03:30:21;3.65;;;0.70;;
17864;SDS011;9058;52.018;4.202;2022-09-28T03:32:55;3.75;;;0.70;;
17864;SDS011;9058;52.018;4.202;2022-09-28T03:35:22;3.80;;;0.70;;
17864;SDS011;9058;52.018;4.202;2022-09-28T03:37:48;2.33;;;0.80;;
17864;SDS011;9058;52.018;4.202;2022-09-28T03:40:15;3.65;;;0.60;;
17864;SDS011;9058;52.018;4.202;2022-09-28T03:42:43;1.02;;;0.40;;
17864;SDS011;9058;52.018;4.202;2022-09-28T03:45:10;3.08;;;0.88;;
17864;SDS011;9058;52.018;4.202;2022-09-28T03:47:36;2.92;;;0.73;;
17864;SDS011;9058;52.018;4.202;2022-09-28T03:50:03;1.25;;;1.13;;
17864;SDS011;9058;52.018;4.202;2022-09-28T03:52:31;4.57;;;0.75;;
17864;SDS011;9058;52.018;4.202;2022-09-28T03:54:58;2.47;;;0.60;;
17864;SDS011;9058;52.018;4.202;2022-09-28T03:57:25;4.32;;;0.93;;
17864;SDS011;9058;52.018;4.202;2022-09-28T03:59:53;4.30;;;0.63;;
17864;SDS011;9058;52.018;4.202;2022-09-28T04:02:19;1.52;;;0.70;;
17864;SDS011;9058;52.018;4.202;2022-09-28T04:04:46;4.00;;;0.63;;
17864;SDS011;9058;52.018;4.202;2022-09-28T04:07:13;3.85;;;0.75;;
17864;SDS011;9058;52.018;4.202;2022-09-28T04:09:40;3.97;;;0.80;;
17864;SDS011;9058;52.018;4.202;2022-09-28T04:12:07;3.05;;;0.90;;
17864;SDS011;9058;52.018;4.202;2022-09-28T04:14:34;5.68;;;1.02;;
17864;SDS011;9058;52.018;4.202;2022-09-28T04:17:02;4.63;;;0.60;;
17864;SDS011;9058;52.018;4.202;2022-09-28T04:19:31;5.65;;;0.55;;
17864;SDS011;9058;52.018;4.202;2022-09-28T04:21:58;2.88;;;0.60;;
17864;SDS011;9058;52.018;4.202;2022-09-28T04:24:25;1.88;;;0.80;;
17864;SDS011;9058;52.018;4.202;2022-09-28T04:26:52;1.95;;;0.50;;
17864;SDS011;9058;52.018;4.202;2022-09-28T04:29:40;2.35;;;0.50;;
17864;SDS011;9058;52.018;4.202;2022-09-28T04:32:09;3.33;;;0.85;;
17864;SDS011;9058;52.018;4.202;2022-09-28T04:34:36;2.35;;;0.60;;
17864;SDS011;9058;52.018;4.202;2022-09-28T04:37:03;3.55;;;0.60;;
17864;SDS011;9058;52.018;4.202;2022-09-28T04:39:30;3.25;;;0.90;;
17864;SDS011;9058;52.018;4.202;2022-09-28T04:41:56;5.43;;;0.70;;
17864;SDS011;9058;52.018;4.202;2022-09-28T04:44:23;1.75;;;0.80;;
17864;SDS011;9058;52.018;4.202;2022-09-28T04:46:50;3.42;;;0.57;;
17864;SDS011;9058;52.018;4.202;2022-09-28T04:49:19;2.85;;;0.70;;
17864;SDS011;9058;52.018;4.202;2022-09-28T04:51:45;1.05;;;0.50;;
17864;SDS011;9058;52.018;4.202;2022-09-28T04:54:12;2.67;;;0.70;;
17864;SDS011;9058;52.018;4.202;2022-09-28T04:56:38;7.70;;;1.02;;
17864;SDS011;9058;52.018;4.202;2022-09-28T04:59:06;3.97;;;0.73;;
17864;SDS011;9058;52.018;4.202;2022-09-28T05:01:34;2.40;;;0.70;;
17864;SDS011;9058;52.018;4.202;2022-09-28T05:04:01;4.88;;;0.82;;
17864;SDS011;9058;52.018;4.202;2022-09-28T05:06:29;1.73;;;0.77;;
17864;SDS011;9058;52.018;4.202;2022-09-28T05:08:56;2.15;;;0.57;;
17864;SDS011;9058;52.018;4.202;2022-09-28T05:11:23;1.92;;;0.60;;
17864;SDS011;9058;52.018;4.202;2022-09-28T05:13:49;2.35;;;0.40;;
17864;SDS011;9058;52.018;4.202;2022-09-28T05:16:16;4.53;;;1.13;;
17864;SDS011;9058;52.018;4.202;2022-09-28T05:18:44;2.80;;;0.70;;
17864;SDS011;9058;52.018;4.202;2022-09-28T05:21:11;5.35;;;1.00;;
17864;SDS011;9058;52.018;4.202;2022-09-28T05:23:42;3.53;;;0.95;;
17864;SDS011;9058;52.018;4.202;2022-09-28T05:26:12;3.88;;;0.85;;
17864;SDS011;9058;52.018;4.202;2022-09-28T05:28:38;9.77;;;1.10;;
17864;SDS011;9058;52.018;4.202;2022-09-28T05:31:05;1.65;;;1.30;;
17864;SDS011;9058;52.018;4.202;2022-09-28T05:33:32;7.35;;;1.40;;
17864;SDS011;9058;52.018;4.202;2022-09-28T05:35:59;3.00;;;0.80;;
17864;SDS011;9058;52.018;4.202;2022-09-28T05:38:26;2.67;;;1.42;;
17864;SDS011;9058;52.018;4.202;2022-09-28T05:40:55;4.85;;;0.73;;
17864;SDS011;9058;52.018;4.202;2022-09-28T05:43:21;1.80;;;0.60;;
17864;SDS011;9058;52.018;4.202;2022-09-28T05:45:48;5.28;;;1.00;;
17864;SDS011;9058;52.018;4.202;2022-09-28T05:48:14;3.88;;;0.95;;
17864;SDS011;9058;52.018;4.202;2022-09-28T05:50:41;3.90;;;1.10;;
17864;SDS011;9058;52.018;4.202;2022-09-28T05:53:08;5.28;;;0.70;;
17864;SDS011;9058;52.018;4.202;2022-09-28T05:55:35;1.98;;;0.90;;
17864;SDS011;9058;52.018;4.202;2022-09-28T05:58:04;1.88;;;0.50;;
17864;SDS011;9058;52.018;4.202;2022-09-28T06:00:31;3.10;;;0.98;;
17864;SDS011;9058;52.018;4.202;2022-09-28T06:02:59;2.30;;;0.68;;
17864;SDS011;9058;52.018;4.202;2022-09-28T06:05:26;5.70;;;1.08;;
17864;SDS011;9058;52.018;4.202;2022-09-28T06:07:53;5.10;;;0.75;;
17864;SDS011;9058;52.018;4.202;2022-09-28T06:10:21;3.00;;;0.80;;
17864;SDS011;9058;52.018;4.202;2022-09-28T06:12:50;2.90;;;0.70;;
17864;SDS011;9058;52.018;4.202;2022-09-28T06:15:18;0.80;;;0.80;;
17864;SDS011;9058;52.018;4.202;2022-09-28T06:17:45;2.28;;;0.80;;
17864;SDS011;9058;52.018;4.202;2022-09-28T06:20:11;2.47;;;1.02;;
17864;SDS011;9058;52.018;4.202;2022-09-28T06:22:38;7.45;;;1.10;;
17864;SDS011;9058;52.018;4.202;2022-09-28T06:25:04;3.75;;;1.05;;
17864;SDS011;9058;52.018;4.202;2022-09-28T06:27:33;3.40;;;1.00;;
17864;SDS011;9058;52.018;4.202;2022-09-28T06:30:00;2.20;;;0.82;;
17864;SDS011;9058;52.018;4.202;2022-09-28T06:32:29;3.63;;;0.77;;
17864;SDS011;9058;52.018;4.202;2022-09-28T06:34:56;4.82;;;1.38;;
17864;SDS011;9058;52.018;4.202;2022-09-28T06:37:23;3.83;;;0.60;;
17864;SDS011;9058;52.018;4.202;2022-09-28T06:39:50;5.78;;;1.30;;
17864;SDS011;9058;52.018;4.202;2022-09-28T06:42:17;6.38;;;1.30;;
17864;SDS011;9058;52.018;4.202;2022-09-28T06:44:43;2.08;;;0.68;;
17864;SDS011;9058;52.018;4.202;2022-09-28T06:47:11;3.92;;;0.63;;
17864;SDS011;9058;52.018;4.202;2022-09-28T06:49:40;2.08;;;0.80;;
17864;SDS011;9058;52.018;4.202;2022-09-28T06:52:07;2.58;;;0.80;;
17864;SDS011;9058;52.018;4.202;2022-09-28T06:54:36;2.08;;;0.80;;
17864;SDS011;9058;52.018;4.202;2022-09-28T06:57:02;7.93;;;0.73;;
17864;SDS011;9058;52.018;4.202;2022-09-28T06:59:29;4.18;;;0.90;;
17864;SDS011;9058;52.018;4.202;2022-09-28T07:01:56;1.40;;;0.70;;
17864;SDS011;9058;52.018;4.202;2022-09-28T07:04:23;4.97;;;0.73;;
17864;SDS011;9058;52.018;4.202;2022-09-28T07:06:51;4.00;;;0.88;;
17864;SDS011;9058;52.018;4.202;2022-09-28T07:09:19;3.10;;;0.60;;
17864;SDS011;9058;52.018;4.202;2022-09-28T07:11:45;2.53;;;0.98;;
17864;SDS011;9058;52.018;4.202;2022-09-28T07:14:12;6.13;;;1.42;;
17864;SDS011;9058;52.018;4.202;2022-09-28T07:16:39;2.85;;;0.85;;
17864;SDS011;9058;52.018;4.202;2022-09-28T07:19:05;1.75;;;0.88;;
17864;SDS011;9058;52.018;4.202;2022-09-28T07:21:32;4.72;;;0.70;;
17864;SDS011;9058;52.018;4.202;2022-09-28T07:24:00;1.40;;;0.80;;
17864;SDS011;9058;52.018;4.202;2022-09-28T07:26:26;2.75;;;0.73;;
17864;SDS011;9058;52.018;4.202;2022-09-28T07:28:53;4.65;;;0.70;;
17864;SDS011;9058;52.018;4.202;2022-09-28T07:31:20;1.55;;;0.80;;
17864;SDS011;9058;52.018;4.202;2022-09-28T07:33:49;4.20;;;0.70;;
17864;SDS011;9058;52.018;4.202;2022-09-28T07:36:18;1.80;;;0.93;;
17864;SDS011;9058;52.018;4.202;2022-09-28T07:38:45;2.67;;;0.80;;
17864;SDS011;9058;52.018;4.202;2022-09-28T07:41:13;2.40;;;0.77;;
17864;SDS011;9058;52.018;4.202;2022-09-28T07:43:42;0.70;;;0.70;;
17864;SDS011;9058;52.018;4.202;2022-09-28T07:46:08;3.22;;;0.70;;
17864;SDS011;9058;52.018;4.202;2022-09-28T07:48:38;4.82;;;0.82;;
17864;SDS011;9058;52.018;4.202;2022-09-28T07:51:06;1.45;;;0.57;;
17864;SDS011;9058;52.018;4.202;2022-09-28T07:53:34;3.67;;;1.00;;
17864;SDS011;9058;52.018;4.202;2022-09-28T07:56:02;1.92;;;0.90;;
17864;SDS011;9058;52.018;4.202;2022-09-28T07:58:32;1.45;;;0.80;;
17864;SDS011;9058;52.018;4.202;2022-09-28T08:01:01;3.30;;;1.00;;
17864;SDS011;9058;52.018;4.202;2022-09-28T08:03:28;3.10;;;0.90;;
17864;SDS011;9058;52.018;4.202;2022-09-28T08:05:56;1.58;;;0.85;;
17864;SDS011;9058;52.018;4.202;2022-09-28T08:08:24;3.42;;;0.85;;
17864;SDS011;9058;52.018;4.202;2022-09-28T08:10:51;4.60;;;1.85;;
17864;SDS011;9058;52.018;4.202;2022-09-28T08:13:18;1.90;;;0.80;;
17864;SDS011;9058;52.018;4.202;2022-09-28T08:15:46;4.03;;;0.80;;
17864;SDS011;9058;52.018;4.202;2022-09-28T08:18:16;0.77;;;0.60;;
17864;SDS011;9058;52.018;4.202;2022-09-28T08:20:42;2.17;;;0.80;;
17864;SDS011;9058;52.018;4.202;2022-09-28T08:23:26;1.98;;;0.60;;
17864;SDS011;9058;52.018;4.202;2022-09-28T08:25:53;1.83;;;0.60;;
17864;SDS011;9058;52.018;4.202;2022-09-28T08:28:20;2.20;;;0.70;;
17864;SDS011;9058;52.018;4.202;2022-09-28T08:30:48;2.15;;;0.60;;
17864;SDS011;9058;52.018;4.202;2022-09-28T08:33:16;1.92;;;1.15;;
17864;SDS011;9058;52.018;4.202;2022-09-28T08:35:44;1.70;;;0.82;;
17864;SDS011;9058;52.018;4.202;2022-09-28T08:38:11;2.67;;;0.70;;
17864;SDS011;9058;52.018;4.202;2022-09-28T08:40:41;3.90;;;0.80;;
17864;SDS011;9058;52.018;4.202;2022-09-28T08:43:15;1.38;;;0.60;;
17864;SDS011;9058;52.018;4.202;2022-09-28T08:45:43;2.72;;;0.80;;
17864;SDS011;9058;52.018;4.202;2022-09-28T08:48:12;0.90;;;0.60;;
17864;SDS011;9058;52.018;4.202;2022-09-28T08:51:01;0.85;;;0.52;;
17864;SDS011;9058;52.018;4.202;2022-09-28T08:53:32;1.00;;;0.80;;
17864;SDS011;9058;52.018;4.202;2022-09-28T08:56:01;3.25;;;1.13;;
17864;SDS011;9058;52.018;4.202;2022-09-28T08:58:30;1.77;;;0.95;;
17864;SDS011;9058;52.018;4.202;2022-09-28T09:00:58;4.07;;;1.10;;
17864;SDS011;9058;52.018;4.202;2022-09-28T09:03:28;3.75;;;1.35;;
17864;SDS011;9058;52.018;4.202;2022-09-28T09:05:57;1.42;;;0.77;;
17864;SDS011;9058;52.018;4.202;2022-09-28T09:08:29;1.85;;;0.60;;
17864;SDS011;9058;52.018;4.202;2022-09-28T09:10:58;1.48;;;0.98;;
17864;SDS011;9058;52.018;4.202;2022-09-28T09:13:33;3.90;;;0.90;;
17864;SDS011;9058;52.018;4.202;2022-09-28T09:16:03;4.43;;;1.00;;
17864;SDS011;9058;52.018;4.202;2022-09-28T09:18:36;2.38;;;1.33;;
17864;SDS011;9058;52.018;4.202;2022-09-28T09:21:06;1.33;;;1.00;;
17864;SDS011;9058;52.018;4.202;2022-09-28T09:23:35;2.95;;;1.17;;
17864;SDS011;9058;52.018;4.202;2022-09-28T09:26:04;1.90;;;0.90;;
17864;SDS011;9058;52.018;4.202;2022-09-28T09:28:38;2.70;;;1.27;;
17864;SDS011;9058;52.018;4.202;2022-09-28T09:31:11;4.13;;;1.05;;
17864;SDS011;9058;52.018;4.202;2022-09-28T09:33:53;1.55;;;0.90;;
17864;SDS011;9058;52.018;4.202;2022-09-28T09:36:26;1.25;;;0.80;;
17864;SDS011;9058;52.018;4.202;2022-09-28T09:39:00;4.10;;;0.90;;
17864;SDS011;9058;52.018;4.202;2022-09-28T09:41:32;2.08;;;0.60;;
17864;SDS011;9058;52.018;4.202;2022-09-28T09:44:04;2.58;;;0.80;;
17864;SDS011;9058;52.018;4.202;2022-09-28T09:46:36;2.72;;;0.63;;
17864;SDS011;9058;52.018;4.202;2022-09-28T09:49:09;1.23;;;0.73;;
17864;SDS011;9058;52.018;4.202;2022-09-28T09:51:39;1.58;;;0.98;;
17864;SDS011;9058;52.018;4.202;2022-09-28T09:54:10;4.03;;;0.80;;
17864;SDS011;9058;52.018;4.202;2022-09-28T09:56:40;3.97;;;0.80;;
17864;SDS011;9058;52.018;4.202;2022-09-28T09:59:10;2.20;;;1.30;;
17864;SDS011;9058;52.018;4.202;2022-09-28T10:01:37;3.33;;;0.80;;
17864;SDS011;9058;52.018;4.202;2022-09-28T10:04:06;1.02;;;0.90;;
17864;SDS011;9058;52.018;4.202;2022-09-28T10:06:37;1.60;;;0.63;;
17864;SDS011;9058;52.018;4.202;2022-09-28T10:09:05;2.83;;;0.70;;
17864;SDS011;9058;52.018;4.202;2022-09-28T10:11:32;0.95;;;0.40;;
17864;SDS011;9058;52.018;4.202;2022-09-28T10:14:00;1.30;;;0.32;;
17864;SDS011;9058;52.018;4.202;2022-09-28T10:16:27;1.90;;;0.40;;
17864;SDS011;9058;52.018;4.202;2022-09-28T10:18:53;0.50;;;0.40;;
17864;SDS011;9058;52.018;4.202;2022-09-28T10:21:21;1.75;;;0.43;;
17864;SDS011;9058;52.018;4.202;2022-09-28T10:23:49;0.93;;;0.50;;
17864;SDS011;9058;52.018;4.202;2022-09-28T10:26:19;0.43;;;0.43;;
17864;SDS011;9058;52.018;4.202;2022-09-28T10:28:50;0.65;;;0.60;;
17864;SDS011;9058;52.018;4.202;2022-09-28T10:31:33;3.78;;;0.60;;
17864;SDS011;9058;52.018;4.202;2022-09-28T10:34:00;1.05;;;0.47;;
17864;SDS011;9058;52.018;4.202;2022-09-28T10:36:28;1.95;;;0.40;;
17864;SDS011;9058;52.018;4.202;2022-09-28T10:39:02;1.95;;;0.50;;
17864;SDS011;9058;52.018;4.202;2022-09-28T10:41:29;1.45;;;0.32;;
17864;SDS011;9058;52.018;4.202;2022-09-28T10:43:57;0.52;;;0.30;;
17864;SDS011;9058;52.018;4.202;2022-09-28T10:46:31;3.83;;;0.40;;
17864;SDS011;9058;52.018;4.202;2022-09-28T10:48:59;4.20;;;0.93;;
17864;SDS011;9058;52.018;4.202;2022-09-28T10:51:40;0.38;;;0.32;;
17864;SDS011;9058;52.018;4.202;2022-09-28T10:54:12;0.85;;;0.70;;
17864;SDS011;9058;52.018;4.202;2022-09-28T10:56:40;9.75;;;0.90;;
17864;SDS011;9058;52.018;4.202;2022-09-28T10:59:21;1.75;;;0.63;;
17864;SDS011;9058;52.018;4.202;2022-09-28T11:01:50;3.20;;;0.65;;
17864;SDS011;9058;52.018;4.202;2022-09-28T11:04:19;1.70;;;0.47;;
17864;SDS011;9058;52.018;4.202;2022-09-28T11:06:48;4.55;;;0.75;;
17864;SDS011;9058;52.018;4.202;2022-09-28T11:09:21;4.90;;;0.43;;
17864;SDS011;9058;52.018;4.202;2022-09-28T11:11:49;1.25;;;0.35;;
17864;SDS011;9058;52.018;4.202;2022-09-28T11:14:20;2.72;;;0.60;;
17864;SDS011;9058;52.018;4.202;2022-09-28T11:16:48;0.75;;;0.20;;
17864;SDS011;9058;52.018;4.202;2022-09-28T11:19:35;0.50;;;0.30;;
17864;SDS011;9058;52.018;4.202;2022-09-28T11:22:11;3.13;;;1.13;;
17864;SDS011;9058;52.018;4.202;2022-09-28T11:24:45;1.27;;;0.52;;
17864;SDS011;9058;52.018;4.202;2022-09-28T11:27:18;2.53;;;0.60;;
17864;SDS011;9058;52.018;4.202;2022-09-28T11:29:50;1.70;;;0.40;;
17864;SDS011;9058;52.018;4.202;2022-09-28T11:32:30;0.60;;;0.32;;
17864;SDS011;9058;52.018;4.202;2022-09-28T11:35:04;1.10;;;0.20;;
17864;SDS011;9058;52.018;4.202;2022-09-28T11:37:39;2.38;;;0.60;;
17864;SDS011;9058;52.018;4.202;2022-09-28T11:40:13;1.50;;;0.43;;
17864;SDS011;9058;52.018;4.202;2022-09-28T11:42:44;1.45;;;0.47;;
17864;SDS011;9058;52.018;4.202;2022-09-28T11:45:17;2.22;;;1.10;;
17864;SDS011;9058;52.018;4.202;2022-09-28T11:47:49;2.58;;;1.33;;
17864;SDS011;9058;52.018;4.202;2022-09-28T11:50:21;1.45;;;0.63;;
17864;SDS011;9058;52.018;4.202;2022-09-28T11:52:52;2.65;;;0.50;;
17864;SDS011;9058;52.018;4.202;2022-09-28T11:55:23;2.70;;;0.75;;
17864;SDS011;9058;52.018;4.202;2022-09-28T11:57:53;3.58;;;1.05;;
17864;SDS011;9058;52.018;4.202;2022-09-28T12:00:22;1.80;;;1.70;;
17864;SDS011;9058;52.018;4.202;2022-09-28T12:02:50;1.65;;;0.88;;
17864;SDS011;9058;52.018;4.202;2022-09-28T12:05:20;0.85;;;0.30;;
17864;SDS011;9058;52.018;4.202;2022-09-28T12:07:49;1.38;;;0.85;;
17864;SDS011;9058;52.018;4.202;2022-09-28T12:10:19;1.90;;;0.80;;
17864;SDS011;9058;52.018;4.202;2022-09-28T12:12:48;1.52;;;0.65;;
17864;SDS011;9058;52.018;4.202;2022-09-28T12:15:18;1.70;;;0.77;;
17864;SDS011;9058;52.018;4.202;2022-09-28T12:17:47;0.50;;;0.50;;
17864;SDS011;9058;52.018;4.202;2022-09-28T12:20:18;2.90;;;0.50;;
17864;SDS011;9058;52.018;4.202;2022-09-28T12:22:47;0.80;;;0.40;;
17864;SDS011;9058;52.018;4.202;2022-09-28T12:25:16;1.40;;;0.50;;
17864;SDS011;9058;52.018;4.202;2022-09-28T12:27:47;0.82;;;0.47;;
17864;SDS011;9058;52.018;4.202;2022-09-28T12:30:16;2.03;;;1.15;;
17864;SDS011;9058;52.018;4.202;2022-09-28T12:32:45;4.10;;;1.00;;
17864;SDS011;9058;52.018;4.202;2022-09-28T12:35:14;2.53;;;0.80;;
17864;SDS011;9058;52.018;4.202;2022-09-28T12:37:45;2.58;;;0.70;;
17864;SDS011;9058;52.018;4.202;2022-09-28T12:40:22;0.77;;;0.38;;
17864;SDS011;9058;52.018;4.202;2022-09-28T12:43:00;1.15;;;0.47;;
17864;SDS011;9058;52.018;4.202;2022-09-28T12:45:35;1.13;;;0.40;;
17864;SDS011;9058;52.018;4.202;2022-09-28T12:48:08;0.60;;;0.60;;
17864;SDS011;9058;52.018;4.202;2022-09-28T12:50:42;6.00;;;1.30;;
17864;SDS011;9058;52.018;4.202;2022-09-28T12:53:21;2.03;;;1.30;;
17864;SDS011;9058;52.018;4.202;2022-09-28T12:55:52;3.42;;;1.40;;
17864;SDS011;9058;52.018;4.202;2022-09-28T12:58:27;5.28;;;1.38;;
17864;SDS011;9058;52.018;4.202;2022-09-28T13:00:58;3.90;;;1.67;;
17864;SDS011;9058;52.018;4.202;2022-09-28T13:03:33;3.95;;;0.70;;
17864;SDS011;9058;52.018;4.202;2022-09-28T13:06:16;2.95;;;1.10;;
17864;SDS011;9058;52.018;4.202;2022-09-28T13:08:49;4.65;;;1.17;;
17864;SDS011;9058;52.018;4.202;2022-09-28T13:11:24;4.90;;;1.33;;
17864;SDS011;9058;52.018;4.202;2022-09-28T13:13:59;5.30;;;1.10;;
17864;SDS011;9058;52.018;4.202;2022-09-28T13:16:32;7.75;;;1.90;;
17864;SDS011;9058;52.018;4.202;2022-09-28T13:19:06;2.50;;;1.00;;
17864;SDS011;9058;52.018;4.202;2022-09-28T13:21:38;5.03;;;1.30;;
17864;SDS011;9058;52.018;4.202;2022-09-28T13:24:08;2.88;;;0.80;;
17864;SDS011;9058;52.018;4.202;2022-09-28T13:26:39;3.22;;;1.17;;
17864;SDS011;9058;52.018;4.202;2022-09-28T13:29:10;2.00;;;1.42;;
17864;SDS011;9058;52.018;4.202;2022-09-28T13:31:43;3.85;;;2.90;;
17864;SDS011;9058;52.018;4.202;2022-09-28T13:34:12;2.63;;;2.17;;
17864;SDS011;9058;52.018;4.202;2022-09-28T13:39:35;5.30;;;4.00;;
17864;SDS011;9058;52.018;4.202;2022-09-28T13:42:02;6.47;;;4.47;;
17864;SDS011;9058;52.018;4.202;2022-09-28T13:44:34;4.90;;;3.88;;
17864;SDS011;9058;52.018;4.202;2022-09-28T13:47:06;4.82;;;3.90;;
17864;SDS011;9058;52.018;4.202;2022-09-28T13:49:41;4.80;;;3.80;;
17864;SDS011;9058;52.018;4.202;2022-09-28T13:52:11;4.10;;;2.88;;
17864;SDS011;9058;52.018;4.202;2022-09-28T13:54:44;2.72;;;1.50;;
17864;SDS011;9058;52.018;4.202;2022-09-28T13:57:14;2.38;;;1.48;;
17864;SDS011;9058;52.018;4.202;2022-09-28T13:59:51;3.13;;;1.63;;
17864;SDS011;9058;52.018;4.202;2022-09-28T14:02:22;3.55;;;1.70;;
17864;SDS011;9058;52.018;4.202;2022-09-28T14:04:55;2.05;;;1.77;;
17864;SDS011;9058;52.018;4.202;2022-09-28T14:07:24;1.73;;;0.90;;
17864;SDS011;9058;52.018;4.202;2022-09-28T14:12:47;1.33;;;1.23;;
17864;SDS011;9058;52.018;4.202;2022-09-28T14:18:19;1.15;;;0.57;;
17864;SDS011;9058;52.018;4.202;2022-09-28T14:20:49;1.98;;;0.70;;
17864;SDS011;9058;52.018;4.202;2022-09-28T14:23:29;1.23;;;0.65;;
17864;SDS011;9058;52.018;4.202;2022-09-28T14:26:02;0.88;;;0.88;;
17864;SDS011;9058;52.018;4.202;2022-09-28T14:28:36;0.60;;;0.40;;
17864;SDS011;9058;52.018;4.202;2022-09-28T14:31:08;1.92;;;0.60;;
17864;SDS011;9058;52.018;4.202;2022-09-28T14:33:42;1.27;;;0.52;;
17864;SDS011;9058;52.018;4.202;2022-09-28T14:36:21;1.27;;;0.70;;
17864;SDS011;9058;52.018;4.202;2022-09-28T14:39:16;1.40;;;0.55;;
17864;SDS011;9058;52.018;4.202;2022-09-28T14:42:06;1.17;;;0.80;;
17864;SDS011;9058;52.018;4.202;2022-09-28T14:44:41;2.40;;;0.50;;
17864;SDS011;9058;52.018;4.202;2022-09-28T14:47:32;1.35;;;0.82;;
17864;SDS011;9058;52.018;4.202;2022-09-28T14:50:01;0.60;;;0.60;;
17864;SDS011;9058;52.018;4.202;2022-09-28T14:52:43;1.00;;;0.90;;
17864;SDS011;9058;52.018;4.202;2022-09-28T14:55:13;0.77;;;0.70;;
17864;SDS011;9058;52.018;4.202;2022-09-28T14:57:40;0.85;;;0.52;;
17864;SDS011;9058;52.018;4.202;2022-09-28T15:00:07;0.98;;;0.68;;
17864;SDS011;9058;52.018;4.202;2022-09-28T15:02:39;0.73;;;0.60;;
17864;SDS011;9058;52.018;4.202;2022-09-28T15:05:11;0.38;;;0.38;;
17864;SDS011;9058;52.018;4.202;2022-09-28T15:07:42;2.10;;;0.60;;
17864;SDS011;9058;52.018;4.202;2022-09-28T15:10:13;0.68;;;0.40;;
17864;SDS011;9058;52.018;4.202;2022-09-28T15:12:41;0.77;;;0.50;;
17864;SDS011;9058;52.018;4.202;2022-09-28T15:15:15;1.92;;;0.70;;
17864;SDS011;9058;52.018;4.202;2022-09-28T15:17:46;2.28;;;0.60;;
17864;SDS011;9058;52.018;4.202;2022-09-28T15:20:21;2.17;;;0.73;;
17864;SDS011;9058;52.018;4.202;2022-09-28T15:22:49;1.35;;;0.65;;
17864;SDS011;9058;52.018;4.202;2022-09-28T15:25:18;1.20;;;0.70;;